Time;durP1;ratioP1;P1;durP2;ratioP2;P2;SDS_P1;SDS_P2;PMS_P1;PMS_P2;Temp;Humidity;BMP_temperature;BMP_pressure;BME280_temperature;BME280_humidity;BME280_pressure;Samples;Min_cycle;Max_cycle;Signal;HPM_P1;HPM_P2
2023/03/09 00:01:23;;;;;;;11.35;8.63;;;2.90;99.90;;;;;;4993160;28;20034;-69
2023/03/09 00:03:48;;;;;;;12.90;8.70;;;2.90;99.90;;;;;;4993021;28;20117;-69
2023/03/09 00:06:14;;;;;;;10.15;8.43;;;2.90;99.90;;;;;;4993041;28;20116;-69
2023/03/09 00:08:40;;;;;;;9.13;7.65;;;2.90;99.90;;;;;;4992993;28;20051;-69
2023/03/09 00:11:06;;;;;;;9.43;7.72;;;2.90;99.90;;;;;;4992928;28;20519;-69
2023/03/09 00:13:32;;;;;;;10.73;8.90;;;2.90;99.90;;;;;;4993043;28;20128;-69
2023/03/09 00:16:07;;;;;;;14.88;9.05;;;2.90;99.90;;;;;;4993274;28;20073;-69
2023/03/09 00:18:33;;;;;;;12.88;9.43;;;2.80;99.90;;;;;;4993143;28;20073;-69
2023/03/09 00:20:58;;;;;;;12.90;9.80;;;2.80;99.90;;;;;;4993078;28;20502;-69
2023/03/09 00:23:24;;;;;;;12.95;10.13;;;2.80;99.90;;;;;;4992679;28;20036;-69
2023/03/09 00:25:50;;;;;;;13.85;9.80;;;2.80;99.90;;;;;;4992766;28;20070;-69
2023/03/09 00:28:15;;;;;;;15.25;10.23;;;2.80;99.90;;;;;;4992683;28;20042;-69
2023/03/09 00:30:41;;;;;;;12.95;9.77;;;2.70;99.90;;;;;;4976801;28;20041;-69
2023/03/09 00:33:06;;;;;;;13.13;10.02;;;2.70;99.90;;;;;;4992799;28;20030;-69
2023/03/09 00:35:35;;;;;;;13.38;10.93;;;2.70;99.90;;;;;;4992578;28;20487;-69
2023/03/09 00:38:01;;;;;;;14.77;10.50;;;2.70;99.90;;;;;;4992867;28;20042;-69
2023/03/09 00:40:26;;;;;;;13.18;10.45;;;2.60;99.90;;;;;;4992839;28;20483;-69
2023/03/09 00:42:52;;;;;;;14.73;10.93;;;2.60;99.90;;;;;;4992481;28;20089;-69
2023/03/09 00:45:18;;;;;;;14.23;10.65;;;2.60;99.90;;;;;;4992511;28;20046;-69
2023/03/09 00:47:43;;;;;;;11.32;9.73;;;2.60;99.90;;;;;;4992518;28;20129;-69
2023/03/09 00:50:10;;;;;;;13.38;10.27;;;2.60;99.90;;;;;;4992482;28;20078;-69
2023/03/09 00:52:36;;;;;;;13.32;11.10;;;2.60;99.90;;;;;;4992413;28;20042;-69
2023/03/09 00:55:02;;;;;;;12.77;10.40;;;2.60;99.90;;;;;;4992371;28;20050;-69
2023/03/09 00:57:27;;;;;;;13.90;10.20;;;2.60;99.90;;;;;;4992668;28;20038;-69
2023/03/09 00:59:53;;;;;;;13.88;10.15;;;2.60;99.90;;;;;;4992338;28;20073;-69
2023/03/09 01:02:22;;;;;;;13.57;10.05;;;2.60;99.90;;;;;;4992324;28;20037;-69
2023/03/09 01:04:48;;;;;;;13.93;11.07;;;2.60;99.90;;;;;;4994176;28;20089;-69
2023/03/09 01:07:15;;;;;;;15.98;10.95;;;2.50;99.90;;;;;;4980392;28;20061;-69
2023/03/09 01:09:41;;;;;;;13.30;11.00;;;2.50;99.90;;;;;;4996290;28;20491;-69
2023/03/09 01:12:07;;;;;;;12.35;10.23;;;2.50;99.90;;;;;;4996214;28;20052;-69
2023/03/09 01:14:33;;;;;;;17.05;11.18;;;2.50;99.90;;;;;;4996072;28;20048;-69
2023/03/09 01:16:59;;;;;;;15.98;11.25;;;2.50;99.90;;;;;;4996171;28;20499;-69
2023/03/09 01:19:25;;;;;;;15.60;11.95;;;2.40;99.90;;;;;;4979927;28;20495;-69
2023/03/09 01:21:51;;;;;;;16.17;11.55;;;2.40;99.90;;;;;;4996072;28;20121;-69
2023/03/09 01:24:16;;;;;;;13.98;12.13;;;2.40;99.90;;;;;;4996211;28;20446;-69
2023/03/09 01:26:42;;;;;;;14.02;11.23;;;2.40;99.90;;;;;;4996018;28;20545;-69
2023/03/09 01:29:08;;;;;;;15.13;11.25;;;2.40;99.90;;;;;;4996213;28;20042;-69
2023/03/09 01:31:33;;;;;;;16.63;12.07;;;2.40;99.90;;;;;;4996147;28;20402;-69
2023/03/09 01:33:59;;;;;;;15.38;12.05;;;2.40;99.90;;;;;;4995602;28;20499;-70
2023/03/09 01:36:24;;;;;;;15.70;12.50;;;2.40;99.90;;;;;;4995781;28;20038;-69
2023/03/09 01:38:50;;;;;;;14.60;11.98;;;2.40;99.90;;;;;;4995772;28;20065;-69
2023/03/09 01:41:18;;;;;;;14.80;11.73;;;2.30;99.90;;;;;;4995697;28;20077;-69
2023/03/09 01:43:46;;;;;;;15.00;11.88;;;2.40;99.90;;;;;;4995941;28;20155;-69
2023/03/09 01:46:36;;;;;;;14.32;11.63;;;2.40;99.90;;;;;;4995916;28;20112;-69
2023/03/09 01:49:11;;;;;;;16.10;11.68;;;2.40;99.90;;;;;;4979304;28;20038;-69
2023/03/09 01:51:46;;;;;;;15.00;11.38;;;2.40;99.90;;;;;;4995583;28;20487;-69
2023/03/09 01:54:19;;;;;;;16.20;12.70;;;2.40;99.90;;;;;;4995621;28;20117;-69
2023/03/09 01:56:47;;;;;;;18.70;12.68;;;2.40;99.90;;;;;;4979335;28;20121;-69
2023/03/09 01:59:13;;;;;;;18.38;12.63;;;2.40;99.90;;;;;;4995429;28;20093;-69
2023/03/09 02:01:41;;;;;;;15.18;11.90;;;2.40;99.90;;;;;;4995583;28;20034;-69
2023/03/09 02:04:15;;;;;;;16.50;12.35;;;2.30;99.90;;;;;;4995514;28;20038;-69
2023/03/09 02:06:41;;;;;;;15.75;11.85;;;2.30;99.90;;;;;;4995330;28;20078;-69
2023/03/09 02:09:58;;;;;;;18.15;12.65;;;2.30;99.90;;;;;;4995200;28;20081;-69
2023/03/09 02:12:25;;;;;;;13.85;11.18;;;2.40;99.90;;;;;;4901655;29;20054;-69
2023/03/09 02:14:51;;;;;;;17.83;11.77;;;2.30;99.90;;;;;;4960353;28;20051;-69
2023/03/09 02:17:17;;;;;;;15.13;12.05;;;2.30;99.90;;;;;;4995063;28;20038;-69
2023/03/09 02:19:53;;;;;;;14.40;10.90;;;2.30;99.90;;;;;;4995007;28;20034;-69
2023/03/09 02:22:19;;;;;;;15.55;11.13;;;2.30;99.90;;;;;;4994966;28;20065;-69
2023/03/09 02:25:02;;;;;;;15.70;11.05;;;2.30;99.90;;;;;;4994972;28;20078;-69
2023/03/09 02:27:29;;;;;;;13.45;10.65;;;2.30;99.90;;;;;;4995214;28;20050;-69
2023/03/09 02:29:56;;;;;;;13.95;11.27;;;2.30;99.90;;;;;;4994872;28;20057;-69
2023/03/09 02:32:22;;;;;;;13.48;10.23;;;2.20;99.90;;;;;;4994604;28;20097;-69
2023/03/09 02:34:48;;;;;;;12.07;10.10;;;2.20;99.90;;;;;;4994866;28;20046;-69
2023/03/09 02:37:32;;;;;;;12.68;9.63;;;2.30;99.90;;;;;;4994724;28;20383;-69
2023/03/09 02:40:17;;;;;;;13.13;9.80;;;2.20;99.90;;;;;;4978767;28;20038;-69
2023/03/09 02:42:45;;;;;;;12.82;9.20;;;2.30;99.90;;;;;;4978441;28;20510;-69
2023/03/09 02:45:14;;;;;;;13.75;9.90;;;2.20;99.90;;;;;;4994561;28;20498;-69
2023/03/09 02:47:39;;;;;;;12.90;9.70;;;2.20;99.90;;;;;;4978618;28;20082;-69
2023/03/09 02:50:07;;;;;;;13.25;9.68;;;2.20;99.90;;;;;;4978271;28;20458;-69
2023/03/09 02:52:32;;;;;;;11.35;8.68;;;2.20;99.90;;;;;;4994368;28;20510;-69
2023/03/09 02:54:58;;;;;;;12.32;10.00;;;2.20;99.90;;;;;;4994265;28;20034;-69
2023/03/09 02:57:23;;;;;;;12.63;9.10;;;2.20;99.90;;;;;;4994279;28;20038;-69
2023/03/09 02:59:49;;;;;;;11.40;8.82;;;2.20;99.90;;;;;;4994268;28;20038;-69
2023/03/09 03:02:15;;;;;;;12.30;8.70;;;2.20;99.90;;;;;;4994434;28;20038;-69
2023/03/09 03:04:40;;;;;;;12.68;9.35;;;2.20;99.90;;;;;;4994177;28;20042;-69
2023/03/09 03:07:06;;;;;;;11.88;9.00;;;2.20;99.90;;;;;;4994352;28;20053;-69
2023/03/09 03:09:31;;;;;;;10.88;8.35;;;2.20;99.90;;;;;;4994405;28;20517;-69
2023/03/09 03:11:57;;;;;;;11.45;9.20;;;2.20;99.90;;;;;;4977850;28;20538;-69
2023/03/09 03:14:23;;;;;;;11.88;9.07;;;2.20;99.90;;;;;;4993920;28;20078;-69
2023/03/09 03:16:48;;;;;;;11.40;8.95;;;2.20;99.90;;;;;;4993965;28;20118;-69
2023/03/09 03:19:14;;;;;;;12.65;8.60;;;2.20;99.90;;;;;;4977758;28;20038;-69
2023/03/09 03:21:39;;;;;;;11.75;9.40;;;2.20;99.90;;;;;;4994140;28;20036;-69
2023/03/09 03:24:06;;;;;;;11.48;8.48;;;2.20;99.90;;;;;;4993725;28;20495;-69
2023/03/09 03:26:31;;;;;;;12.32;8.90;;;2.20;99.90;;;;;;4993372;28;20125;-69
2023/03/09 03:28:57;;;;;;;10.35;8.50;;;2.20;99.90;;;;;;4993638;28;20078;-69
2023/03/09 03:31:22;;;;;;;10.13;8.40;;;2.10;99.90;;;;;;4993902;28;20050;-69
2023/03/09 03:33:48;;;;;;;12.65;8.95;;;2.10;99.90;;;;;;4993334;28;20092;-69
2023/03/09 03:36:13;;;;;;;11.00;8.60;;;2.20;99.90;;;;;;4977670;28;20042;-69
2023/03/09 03:38:40;;;;;;;10.30;8.75;;;2.20;99.90;;;;;;4993550;28;20517;-69
2023/03/09 03:41:06;;;;;;;12.07;9.52;;;2.10;99.90;;;;;;4977282;28;20042;-69
2023/03/09 03:43:31;;;;;;;13.02;9.55;;;2.10;99.90;;;;;;4993396;28;20045;-69
2023/03/09 03:45:57;;;;;;;10.95;8.57;;;2.10;99.90;;;;;;4993380;28;20038;-69
2023/03/09 03:48:22;;;;;;;11.20;9.35;;;2.10;99.90;;;;;;4993379;28;20044;-69
2023/03/09 03:50:48;;;;;;;12.00;9.55;;;2.10;99.90;;;;;;4993556;28;20042;-69
2023/03/09 03:53:13;;;;;;;11.40;9.43;;;2.10;99.90;;;;;;4993205;28;20081;-69
2023/03/09 03:55:39;;;;;;;15.90;10.38;;;2.10;99.90;;;;;;4993222;28;20080;-69
2023/03/09 03:58:05;;;;;;;12.95;10.50;;;2.00;99.90;;;;;;4993214;28;20479;-69
2023/03/09 04:00:30;;;;;;;14.25;10.57;;;2.00;99.90;;;;;;4976910;28;20038;-69
2023/03/09 04:02:58;;;;;;;13.13;10.55;;;2.00;99.90;;;;;;4993301;28;20048;-69
2023/03/09 04:05:23;;;;;;;13.88;10.38;;;2.00;99.90;;;;;;4993144;28;20123;-69
2023/03/09 04:07:49;;;;;;;16.17;11.20;;;2.00;99.90;;;;;;4993281;28;20097;-69
2023/03/09 04:10:15;;;;;;;16.95;11.60;;;2.00;99.90;;;;;;4992956;28;20414;-69
2023/03/09 04:12:40;;;;;;;15.23;11.70;;;2.00;99.90;;;;;;4992846;28;20053;-69
2023/03/09 04:15:06;;;;;;;16.23;12.15;;;1.90;99.90;;;;;;4992841;28;20046;-69
2023/03/09 04:17:32;;;;;;;15.20;11.65;;;2.00;99.90;;;;;;4992958;28;20125;-69
2023/03/09 04:19:58;;;;;;;15.10;11.93;;;1.90;99.90;;;;;;4992856;28;20073;-69
2023/03/09 04:22:24;;;;;;;16.30;11.75;;;2.00;99.90;;;;;;4992772;28;20030;-69
2023/03/09 04:24:49;;;;;;;17.42;12.68;;;1.90;99.90;;;;;;4993069;28;20132;-69
2023/03/09 04:27:15;;;;;;;14.02;11.35;;;1.90;99.90;;;;;;4976607;28;20499;-69
2023/03/09 04:29:41;;;;;;;17.30;12.43;;;1.90;99.90;;;;;;4992984;28;20129;-69
2023/03/09 04:32:07;;;;;;;15.40;12.23;;;2.00;99.90;;;;;;4992634;28;20451;-69
2023/03/09 04:34:32;;;;;;;17.38;12.35;;;1.90;99.90;;;;;;4992560;28;20038;-69
2023/03/09 04:36:58;;;;;;;22.00;13.57;;;1.90;99.90;;;;;;4992973;28;20039;-69
2023/03/09 04:39:24;;;;;;;16.38;12.68;;;1.90;99.90;;;;;;4992520;28;20517;-69
2023/03/09 04:41:49;;;;;;;16.77;13.10;;;1.90;99.90;;;;;;4992601;28;20125;-69
2023/03/09 04:44:15;;;;;;;17.15;13.02;;;1.90;99.90;;;;;;4992496;28;20089;-69
2023/03/09 04:46:40;;;;;;;17.58;13.82;;;1.90;99.90;;;;;;4992536;28;20049;-69
2023/03/09 04:49:06;;;;;;;17.88;13.13;;;1.90;99.90;;;;;;4992512;28;20038;-69
2023/03/09 04:51:32;;;;;;;17.65;13.25;;;1.90;99.90;;;;;;4992521;28;20038;-69
2023/03/09 04:53:57;;;;;;;17.48;14.23;;;1.90;99.90;;;;;;4992365;28;20069;-69
2023/03/09 04:56:23;;;;;;;17.85;14.38;;;2.00;99.90;;;;;;4992422;28;20264;-69
2023/03/09 04:58:48;;;;;;;19.08;14.27;;;1.90;99.90;;;;;;4992405;28;20129;-69
2023/03/09 05:01:14;;;;;;;19.05;14.40;;;2.00;99.90;;;;;;4992442;28;20049;-69
2023/03/09 05:03:40;;;;;;;22.05;16.17;;;1.90;99.90;;;;;;4992304;28;20065;-69
2023/03/09 05:06:06;;;;;;;22.25;16.35;;;1.90;99.90;;;;;;4992374;28;20061;-69
2023/03/09 05:08:32;;;;;;;20.05;15.38;;;2.00;99.90;;;;;;4992332;28;20045;-69
2023/03/09 05:10:57;;;;;;;20.42;14.93;;;1.90;99.90;;;;;;4992561;28;20152;-69
2023/03/09 05:13:23;;;;;;;20.35;16.13;;;2.00;99.90;;;;;;4992203;28;20039;-69
2023/03/09 05:15:49;;;;;;;21.08;16.60;;;1.90;99.90;;;;;;4992674;28;20054;-69
2023/03/09 05:18:14;;;;;;;20.58;16.02;;;1.90;99.90;;;;;;4992253;28;20499;-69
2023/03/09 05:20:40;;;;;;;21.15;15.32;;;2.00;99.90;;;;;;4992240;28;20034;-69
2023/03/09 05:23:06;;;;;;;22.20;16.50;;;1.90;99.90;;;;;;4992159;28;20034;-69
2023/03/09 05:25:32;;;;;;;24.25;16.25;;;1.80;99.90;;;;;;4992121;28;20042;-69
2023/03/09 05:27:57;;;;;;;22.27;17.15;;;1.80;99.90;;;;;;4992152;28;20046;-69
2023/03/09 05:30:23;;;;;;;22.55;15.63;;;1.80;99.90;;;;;;4992384;28;20096;-70
2023/03/09 05:32:52;;;;;;;22.70;16.45;;;1.80;99.90;;;;;;4991898;28;20086;-69
2023/03/09 05:35:19;;;;;;;21.73;16.80;;;1.80;99.90;;;;;;4975829;28;20125;-69
2023/03/09 05:37:45;;;;;;;22.33;16.83;;;1.80;99.90;;;;;;4992109;28;20562;-69
2023/03/09 05:40:12;;;;;;;20.02;15.07;;;1.80;99.90;;;;;;4992048;28;20529;-69
2023/03/09 05:42:37;;;;;;;21.20;16.52;;;1.80;99.90;;;;;;4991989;28;20125;-70
2023/03/09 05:45:04;;;;;;;22.70;16.23;;;1.80;99.90;;;;;;4991968;28;20134;-69
2023/03/09 05:47:31;;;;;;;22.60;16.23;;;1.80;99.90;;;;;;4992298;28;20086;-69
2023/03/09 05:49:56;;;;;;;20.67;15.38;;;1.80;99.90;;;;;;4992345;28;20525;-69
2023/03/09 05:52:22;;;;;;;25.98;16.05;;;1.80;99.90;;;;;;4995470;28;20038;-69
2023/03/09 05:54:47;;;;;;;23.85;16.85;;;1.70;99.90;;;;;;4995401;28;20100;-69
2023/03/09 05:57:13;;;;;;;26.15;16.23;;;1.80;99.90;;;;;;4995417;28;20045;-69
2023/03/09 05:59:40;;;;;;;21.33;14.77;;;1.80;99.90;;;;;;4995491;28;20042;-69
2023/03/09 06:02:05;;;;;;;20.67;14.82;;;1.80;99.90;;;;;;4995378;28;20045;-69
2023/03/09 06:04:31;;;;;;;21.95;14.90;;;1.80;99.90;;;;;;4995238;28;20047;-69
2023/03/09 06:06:57;;;;;;;21.63;14.43;;;1.80;99.90;;;;;;4995322;28;20133;-69
2023/03/09 06:09:22;;;;;;;19.15;14.35;;;1.80;99.90;;;;;;4979128;28;20042;-69
2023/03/09 06:11:48;;;;;;;20.15;13.88;;;1.80;99.90;;;;;;4978970;28;20125;-69
2023/03/09 06:14:14;;;;;;;19.65;14.65;;;1.80;99.90;;;;;;4995062;28;20042;-69
2023/03/09 06:16:39;;;;;;;19.25;14.05;;;1.80;99.90;;;;;;4995722;28;20101;-69
2023/03/09 06:19:05;;;;;;;17.60;13.13;;;1.80;99.90;;;;;;4995118;28;20491;-69
2023/03/09 06:21:31;;;;;;;19.70;14.50;;;1.90;99.90;;;;;;4995255;28;20042;-69
2023/03/09 06:23:57;;;;;;;19.48;14.00;;;1.90;99.90;;;;;;4994946;28;20042;-69
2023/03/09 06:26:23;;;;;;;19.60;13.43;;;1.90;99.90;;;;;;4994986;28;20042;-69
2023/03/09 06:28:49;;;;;;;19.60;14.35;;;1.90;99.90;;;;;;4994902;28;20039;-69
2023/03/09 06:31:16;;;;;;;23.25;15.30;;;2.00;99.90;;;;;;4994900;28;20038;-69
2023/03/09 06:33:43;;;;;;;21.73;15.77;;;1.90;99.90;;;;;;4994491;28;20376;-69
2023/03/09 06:36:11;;;;;;;22.80;15.70;;;2.00;99.90;;;;;;4994780;28;20406;-69
2023/03/09 06:38:36;;;;;;;19.67;14.38;;;1.90;99.90;;;;;;4994969;28;20069;-69
2023/03/09 06:41:02;;;;;;;21.10;13.60;;;1.90;99.90;;;;;;4994936;28;20569;-69
2023/03/09 06:43:28;;;;;;;22.98;14.13;;;1.90;99.90;;;;;;4994537;28;20035;-69
2023/03/09 06:45:53;;;;;;;20.75;14.32;;;2.00;99.90;;;;;;4994825;28;20038;-69
2023/03/09 06:48:19;;;;;;;19.95;14.57;;;1.90;99.90;;;;;;4994780;28;20046;-69
2023/03/09 06:50:45;;;;;;;18.42;13.70;;;1.90;99.90;;;;;;4994524;28;20525;-69
2023/03/09 06:53:11;;;;;;;19.33;14.60;;;2.00;99.90;;;;;;4994418;28;20038;-69
2023/03/09 06:55:38;;;;;;;18.65;13.55;;;1.90;99.90;;;;;;4978100;28;20503;-69
2023/03/09 06:58:04;;;;;;;17.52;13.05;;;2.00;99.90;;;;;;4994393;28;20053;-69
2023/03/09 07:00:30;;;;;;;18.50;14.38;;;2.00;99.90;;;;;;4994566;28;20050;-69
2023/03/09 07:02:57;;;;;;;18.48;13.98;;;2.00;99.90;;;;;;4992996;28;20121;-69
2023/03/09 07:05:23;;;;;;;20.98;14.25;;;2.00;99.90;;;;;;4994183;28;20450;-69
2023/03/09 07:07:48;;;;;;;21.70;14.48;;;2.10;99.90;;;;;;4994225;28;20069;-69
2023/03/09 07:10:14;;;;;;;19.63;14.30;;;2.10;99.90;;;;;;4994155;28;20096;-69
2023/03/09 07:12:40;;;;;;;19.25;14.07;;;2.20;99.90;;;;;;4993932;28;20046;-70
2023/03/09 07:15:07;;;;;;;18.83;14.70;;;2.20;99.90;;;;;;4993925;28;20090;-69
2023/03/09 07:17:34;;;;;;;20.90;14.98;;;2.20;99.90;;;;;;4994210;28;20557;-69
2023/03/09 07:19:59;;;;;;;18.85;14.02;;;2.20;99.90;;;;;;4994173;28;20030;-69
2023/03/09 07:22:25;;;;;;;21.38;14.73;;;2.30;99.90;;;;;;4993786;28;20384;-69
2023/03/09 07:24:51;;;;;;;19.05;13.95;;;2.30;99.90;;;;;;4993849;28;20046;-69
2023/03/09 07:27:18;;;;;;;18.30;14.13;;;2.40;99.90;;;;;;4993810;28;20054;-69
2023/03/09 07:29:45;;;;;;;19.48;14.65;;;2.40;99.90;;;;;;4994025;28;20046;-69
2023/03/09 07:32:11;;;;;;;19.67;14.48;;;2.40;99.90;;;;;;4993566;28;20043;-69
2023/03/09 07:34:36;;;;;;;20.27;13.85;;;2.50;99.90;;;;;;4993655;28;20034;-69
2023/03/09 07:37:02;;;;;;;18.92;14.50;;;2.40;99.90;;;;;;4993853;28;20030;-69
2023/03/09 07:39:28;;;;;;;21.25;14.38;;;2.50;99.90;;;;;;4993823;28;20507;-69
2023/03/09 07:41:53;;;;;;;19.25;14.50;;;2.50;99.90;;;;;;4993413;28;20070;-69
2023/03/09 07:44:19;;;;;;;20.95;15.07;;;2.50;99.90;;;;;;4993591;28;20042;-69
2023/03/09 07:46:44;;;;;;;18.25;14.00;;;2.50;99.90;;;;;;4977236;28;20046;-69
2023/03/09 07:49:10;;;;;;;19.30;14.57;;;2.60;99.90;;;;;;4993348;28;20078;-69
2023/03/09 07:51:37;;;;;;;18.90;13.55;;;2.50;99.90;;;;;;4993503;28;20074;-69
2023/03/09 07:54:04;;;;;;;20.60;15.07;;;2.50;99.90;;;;;;4993112;28;20507;-69
2023/03/09 07:56:31;;;;;;;18.23;14.32;;;2.60;99.90;;;;;;4993190;28;20545;-69
2023/03/09 07:58:56;;;;;;;18.60;13.98;;;2.60;99.90;;;;;;4993430;28;20085;-69
2023/03/09 08:01:23;;;;;;;19.80;14.90;;;2.60;99.90;;;;;;4993463;28;20034;-69
2023/03/09 08:03:49;;;;;;;18.23;14.38;;;2.70;99.90;;;;;;4993014;28;20517;-69
2023/03/09 08:06:15;;;;;;;19.98;14.63;;;2.70;99.90;;;;;;4993280;28;20038;-69
2023/03/09 08:08:41;;;;;;;18.55;14.45;;;2.70;99.90;;;;;;4993064;28;20038;-69
2023/03/09 08:11:07;;;;;;;20.92;15.23;;;2.80;99.90;;;;;;4993009;28;20042;-69
2023/03/09 08:13:33;;;;;;;19.80;14.70;;;2.70;99.90;;;;;;4992572;28;20045;-69
2023/03/09 08:16:02;;;;;;;18.85;14.45;;;2.80;99.90;;;;;;4976709;28;20047;-70
2023/03/09 08:18:28;;;;;;;19.23;14.90;;;2.90;99.90;;;;;;4993134;28;20443;-69
2023/03/09 08:20:54;;;;;;;19.45;14.30;;;2.90;99.90;;;;;;4993304;28;20049;-69
2023/03/09 08:23:19;;;;;;;19.10;15.40;;;2.90;99.90;;;;;;4992891;28;20034;-69
2023/03/09 08:25:51;;;;;;;18.08;14.45;;;2.90;99.90;;;;;;4992841;28;20046;-69
2023/03/09 08:28:17;;;;;;;17.48;14.27;;;3.00;99.90;;;;;;4976668;28;20054;-69
2023/03/09 08:30:43;;;;;;;19.95;15.05;;;3.00;99.90;;;;;;4992741;28;20053;-70
2023/03/09 08:33:09;;;;;;;19.48;14.50;;;3.10;99.90;;;;;;4976444;28;20042;-69
2023/03/09 08:35:35;;;;;;;20.23;15.18;;;3.10;99.90;;;;;;4992725;28;20073;-69
2023/03/09 08:38:01;;;;;;;18.55;14.18;;;3.10;99.90;;;;;;4976807;28;20083;-69
2023/03/09 08:40:27;;;;;;;18.63;15.15;;;3.20;99.90;;;;;;4992586;28;20034;-69
2023/03/09 08:42:52;;;;;;;17.95;14.38;;;3.10;99.90;;;;;;4992499;28;20118;-69
2023/03/09 08:45:18;;;;;;;18.90;15.70;;;3.10;99.90;;;;;;4992554;28;20121;-69
2023/03/09 08:47:44;;;;;;;18.75;15.05;;;3.20;99.90;;;;;;4992554;28;20038;-69
2023/03/09 08:50:10;;;;;;;20.10;15.70;;;3.10;99.90;;;;;;4992825;28;20050;-69
2023/03/09 08:52:39;;;;;;;18.80;15.52;;;3.10;99.90;;;;;;4992488;28;20045;-69
2023/03/09 08:55:06;;;;;;;18.83;16.00;;;3.10;99.90;;;;;;4992408;28;20491;-69
2023/03/09 08:57:32;;;;;;;20.00;15.55;;;3.10;99.90;;;;;;4992466;28;20058;-69
2023/03/09 08:59:58;;;;;;;18.88;15.38;;;3.20;99.90;;;;;;4992673;28;20034;-69
2023/03/09 09:02:24;;;;;;;18.25;14.35;;;3.20;99.90;;;;;;4992627;28;20062;-70
2023/03/09 09:04:50;;;;;;;18.00;14.30;;;3.20;99.90;;;;;;4976429;28;20042;-69
2023/03/09 09:07:16;;;;;;;19.30;14.07;;;3.20;99.90;;;;;;4992317;28;20062;-69
2023/03/09 09:09:42;;;;;;;18.90;14.85;;;3.30;99.90;;;;;;4992372;28;20081;-69
2023/03/09 09:12:10;;;;;;;18.25;14.73;;;3.30;99.90;;;;;;4992324;28;20054;-69
2023/03/09 09:14:39;;;;;;;17.58;14.88;;;3.30;99.90;;;;;;4992346;28;20070;-69
2023/03/09 09:17:08;;;;;;;19.83;15.55;;;3.40;99.90;;;;;;4992440;28;20035;-69
2023/03/09 09:19:34;;;;;;;18.42;14.32;;;3.40;99.90;;;;;;4992298;28;20037;-69
2023/03/09 09:22:00;;;;;;;18.13;14.30;;;3.40;99.90;;;;;;4992502;28;20061;-69
2023/03/09 09:24:26;;;;;;;20.10;14.65;;;3.50;99.90;;;;;;4992102;28;20503;-69
2023/03/09 09:26:55;;;;;;;17.75;14.27;;;3.60;99.90;;;;;;4995394;28;20046;-69
2023/03/09 09:29:21;;;;;;;18.50;14.40;;;3.60;99.90;;;;;;4996017;28;20039;-69
2023/03/09 09:31:50;;;;;;;16.55;14.18;;;3.60;99.90;;;;;;4996179;28;20092;-69
2023/03/09 09:34:17;;;;;;;16.85;13.90;;;3.70;99.90;;;;;;4995811;28;20038;-69
2023/03/09 09:36:43;;;;;;;17.70;14.43;;;3.70;99.90;;;;;;4996087;28;20085;-69
2023/03/09 09:39:12;;;;;;;17.67;14.02;;;3.60;99.90;;;;;;4995863;28;20034;-69
2023/03/09 09:41:51;;;;;;;18.10;14.52;;;3.60;99.90;;;;;;4996064;28;20045;-69
2023/03/09 09:44:24;;;;;;;21.08;15.43;;;3.60;99.90;;;;;;4996124;28;20038;-69
2023/03/09 09:46:52;;;;;;;;;;;3.60;99.90;;;;;;4996231;28;20410;-69
2023/03/09 09:49:20;;;;;;;17.42;13.75;;;3.50;99.90;;;;;;4995737;28;19922;-68
2023/03/09 09:52:29;;;;;;;19.58;14.23;;;3.50;99.90;;;;;;4979395;28;20034;-68
2023/03/09 09:55:25;;;;;;;16.23;13.52;;;3.60;99.90;;;;;;4995620;28;20042;-69
2023/03/09 09:57:59;;;;;;;17.25;13.52;;;3.70;99.90;;;;;;4979395;28;20042;-68
2023/03/09 10:00:42;;;;;;;16.40;14.05;;;3.60;99.90;;;;;;4995510;28;20092;-69
2023/03/09 10:03:28;;;;;;;16.10;13.25;;;3.70;99.90;;;;;;4995533;28;20046;-69
2023/03/09 10:06:18;;;;;;;17.23;14.13;;;3.70;99.90;;;;;;4995562;28;20042;-69
2023/03/09 10:08:46;;;;;;;15.55;13.00;;;3.70;99.90;;;;;;4995659;28;20487;-69
2023/03/09 10:11:21;;;;;;;18.02;14.57;;;3.80;99.90;;;;;;4995288;28;20046;-69
2023/03/09 10:13:52;;;;;;;15.48;13.35;;;3.80;99.90;;;;;;4978937;28;20491;-69
2023/03/09 10:16:29;;;;;;;18.38;14.40;;;3.90;99.90;;;;;;4995268;28;20100;-69
2023/03/09 10:18:59;;;;;;;15.85;13.80;;;3.90;99.90;;;;;;4995142;28;20410;-69
2023/03/09 10:21:31;;;;;;;16.65;13.23;;;3.90;99.90;;;;;;4995091;28;20042;-69
2023/03/09 10:24:01;;;;;;;15.75;13.90;;;4.00;99.90;;;;;;4994960;28;20042;-69
2023/03/09 10:26:50;;;;;;;16.85;13.52;;;4.00;99.90;;;;;;4994996;28;20053;-69
2023/03/09 10:29:25;;;;;;;17.70;14.02;;;4.00;99.90;;;;;;4978810;28;20121;-69
2023/03/09 10:32:04;;;;;;;15.98;12.98;;;4.00;99.90;;;;;;4995156;28;20038;-69
2023/03/09 10:34:41;;;;;;;16.88;13.30;;;4.10;99.90;;;;;;4978435;28;20561;-69
2023/03/09 10:37:20;;;;;;;16.83;14.13;;;4.20;99.90;;;;;;4994780;28;20053;-69
2023/03/09 10:39:46;;;;;;;15.13;12.90;;;4.20;99.90;;;;;;4994820;28;20080;-69
2023/03/09 10:42:22;;;;;;;17.30;13.77;;;4.20;99.90;;;;;;4994619;28;20089;-69
2023/03/09 10:45:01;;;;;;;16.10;13.10;;;4.30;99.90;;;;;;4994594;28;20054;-69
2023/03/09 10:47:47;;;;;;;17.77;13.05;;;4.30;99.90;;;;;;4994857;28;20525;-69
2023/03/09 10:50:16;;;;;;;16.67;12.38;;;4.30;99.90;;;;;;4994825;28;20070;-69
2023/03/09 10:52:41;;;;;;;15.40;12.13;;;4.40;99.90;;;;;;4994596;28;20034;-69
2023/03/09 10:55:29;;;;;;;15.27;12.82;;;4.40;99.90;;;;;;4994381;28;20121;-69
2023/03/09 10:57:57;;;;;;;14.07;11.73;;;4.40;99.90;;;;;;4994373;28;20411;-68
2023/03/09 11:00:25;;;;;;;14.10;11.93;;;4.50;99.90;;;;;;4994372;28;20041;-69
2023/03/09 11:02:53;;;;;;;15.05;12.93;;;4.50;99.90;;;;;;4994199;28;20034;-68
2023/03/09 11:05:22;;;;;;;15.55;12.70;;;4.50;99.90;;;;;;4994456;28;20126;-69
2023/03/09 11:07:53;;;;;;;13.45;11.55;;;4.50;99.90;;;;;;4994608;28;20510;-69
2023/03/09 11:10:32;;;;;;;15.52;12.60;;;4.50;99.90;;;;;;4994141;28;20046;-69
2023/03/09 11:12:59;;;;;;;15.43;11.80;;;4.60;99.90;;;;;;4994053;28;20515;-69
2023/03/09 11:15:35;;;;;;;14.07;12.15;;;4.60;99.90;;;;;;4994102;28;20038;-69
2023/03/09 11:18:02;;;;;;;14.23;11.35;;;4.60;99.90;;;;;;4994324;28;20046;-69
2023/03/09 11:20:32;;;;;;;14.68;11.52;;;4.60;99.90;;;;;;4977779;28;20050;-69
2023/03/09 11:23:11;;;;;;;14.52;11.98;;;4.70;99.90;;;;;;4977945;28;20204;-69
2023/03/09 11:25:57;;;;;;;15.02;12.55;;;4.70;99.90;;;;;;4993897;28;20042;-69
2023/03/09 11:28:38;;;;;;;14.60;11.77;;;4.70;99.90;;;;;;4993819;28;20042;-69
2023/03/09 11:31:11;;;;;;;14.48;12.18;;;4.60;99.90;;;;;;4993786;28;20122;-68
2023/03/09 11:33:37;;;;;;;14.40;12.38;;;4.60;99.90;;;;;;4993887;28;20042;-69
2023/03/09 11:36:04;;;;;;;14.38;12.52;;;4.60;99.90;;;;;;4993637;28;20562;-69
2023/03/09 11:38:32;;;;;;;19.08;13.13;;;4.60;99.90;;;;;;4993924;28;20050;-69
2023/03/09 11:41:10;;;;;;;15.02;12.10;;;4.60;99.90;;;;;;4993643;28;20038;-68
2023/03/09 11:43:43;;;;;;;15.05;12.50;;;4.60;99.90;;;;;;4977347;28;20121;-68
2023/03/09 11:46:14;;;;;;;15.15;12.32;;;4.60;99.90;;;;;;4993584;28;20088;-68
2023/03/09 11:48:52;;;;;;;14.10;11.95;;;4.60;99.90;;;;;;4992898;28;20052;-68
2023/03/09 11:51:27;;;;;;;17.33;12.63;;;4.70;99.90;;;;;;4993714;28;20572;-68
2023/03/09 11:54:26;;;;;;;14.63;12.30;;;4.70;99.90;;;;;;4993530;28;20499;-69
2023/03/09 11:56:53;;;;;;;14.43;12.10;;;4.70;99.90;;;;;;4993375;28;20034;-69
2023/03/09 11:59:21;;;;;;;15.27;13.25;;;4.80;99.90;;;;;;4993271;28;20042;-69
2023/03/09 12:01:56;;;;;;;14.73;12.13;;;4.80;99.90;;;;;;4993557;28;20050;-69
2023/03/09 12:04:22;;;;;;;12.95;11.38;;;4.90;99.90;;;;;;4993586;28;20100;-69
2023/03/09 12:07:11;;;;;;;15.63;12.32;;;4.90;99.90;;;;;;4993349;28;20518;-69
2023/03/09 12:09:57;;;;;;;14.20;11.95;;;4.90;99.90;;;;;;4993317;28;20065;-69
2023/03/09 12:12:47;;;;;;;13.55;11.55;;;4.90;99.90;;;;;;4993345;28;20118;-69
2023/03/09 12:15:16;;;;;;;13.77;11.88;;;4.90;99.90;;;;;;4993137;28;20050;-69
2023/03/09 12:18:03;;;;;;;14.93;12.55;;;4.90;99.90;;;;;;4992983;28;20522;-69
2023/03/09 12:20:39;;;;;;;13.75;12.10;;;4.90;99.90;;;;;;4993188;28;20042;-68
2023/03/09 12:23:25;;;;;;;13.77;11.85;;;4.90;99.90;;;;;;4992803;28;20038;-69
2023/03/09 12:25:57;;;;;;;15.15;12.27;;;4.80;99.90;;;;;;4992615;28;20077;-69
2023/03/09 12:28:22;;;;;;;13.93;11.88;;;4.80;99.90;;;;;;4992788;28;20418;-69
2023/03/09 12:30:54;;;;;;;13.90;10.98;;;4.80;99.90;;;;;;4992724;28;20042;-69
2023/03/09 12:33:41;;;;;;;12.55;10.60;;;4.80;99.90;;;;;;4976280;28;20042;-69
2023/03/09 12:36:28;;;;;;;13.50;11.30;;;4.80;99.90;;;;;;4992595;28;20096;-69
2023/03/09 12:39:24;;;;;;;14.93;12.40;;;4.80;99.90;;;;;;4976563;28;20053;-69
2023/03/09 12:42:02;;;;;;;14.70;12.45;;;4.80;99.90;;;;;;4992605;28;20125;-69
2023/03/09 12:44:46;;;;;;;15.50;12.70;;;4.80;99.90;;;;;;4992428;28;20046;-69
2023/03/09 12:47:23;;;;;;;15.68;12.88;;;4.80;99.90;;;;;;4976387;28;20042;-69